Spy Hill, Canada
Current Conditions -  °F | °C
As of 2:00 PM on Thursday 18 Dec 2014 (Local Time) from CYQV Reporting Station
Light Snow Light Snow  
Wind Chill:   Ceiling: 900
Heat Index: 19°   Visibility: 9mi
Dew Point: 16°   Wind: 10mph
Humidity: 86%   Direction: 200°SSW
Pressure: 29.96"   Gusts: NA
Location:  50.6°N, 101.68°W
Report Text: CYQV 182000Z AUTO 20009KT 9SM -SN OVC009 M07/M09 A2996 RMK SLP184
Loading
Personal Weather Stations






























Interactive Weather Map New forecast layout! Learn more

10-Day Weather Forecast

Advertisements
Track Severe Weather on mobile